createdAt,value
2023-04-09T00:00:38.527Z,3.47
2023-04-09T00:03:06.533Z,5.35
2023-04-09T00:05:34.367Z,8.77
2023-04-09T00:08:02.067Z,4.90
2023-04-09T00:10:29.928Z,7.72
2023-04-09T00:12:57.676Z,9.57
2023-04-09T00:15:31.111Z,7.90
2023-04-09T00:18:00.151Z,6.40
2023-04-09T00:20:27.921Z,7.45
2023-04-09T00:22:56.614Z,11.05
2023-04-09T00:25:24.806Z,10.35
2023-04-09T00:27:52.552Z,9.68
2023-04-09T00:30:20.697Z,8.57
2023-04-09T00:32:48.782Z,9.80
2023-04-09T00:35:19.252Z,7.45
2023-04-09T00:37:47.175Z,11.85
2023-04-09T00:40:15.170Z,8.05
2023-04-09T00:42:43.012Z,10.38
2023-04-09T00:45:11.534Z,10.98
2023-04-09T00:47:39.786Z,9.93
2023-04-09T00:50:11.184Z,9.70
2023-04-09T00:52:39.150Z,11.43
2023-04-09T00:55:07.740Z,10.50
2023-04-09T00:57:40.742Z,8.60
2023-04-09T01:00:09.968Z,5.43
2023-04-09T01:02:38.409Z,7.32
2023-04-09T01:05:06.987Z,7.50
2023-04-09T01:08:02.252Z,10.00
2023-04-09T01:10:42.240Z,9.43
2023-04-09T01:13:26.057Z,7.57
2023-04-09T01:15:57.546Z,9.23
2023-04-09T01:18:37.067Z,7.38
2023-04-09T01:21:14.793Z,7.25
2023-04-09T01:24:10.200Z,7.93
2023-04-09T01:27:07.909Z,9.15
2023-04-09T01:29:58.076Z,8.07
2023-04-09T01:32:27.129Z,6.95
2023-04-09T01:34:56.089Z,7.32
2023-04-09T01:37:25.207Z,8.80
2023-04-09T01:39:53.122Z,8.98
2023-04-09T01:42:21.628Z,5.72
2023-04-09T01:44:49.708Z,7.00
2023-04-09T01:47:17.560Z,5.72
2023-04-09T01:49:46.012Z,5.80
2023-04-09T01:52:14.019Z,7.90
2023-04-09T01:54:43.222Z,5.53
2023-04-09T01:57:16.165Z,5.43
2023-04-09T01:59:43.987Z,8.90
2023-04-09T02:02:19.526Z,5.70
2023-04-09T02:04:50.624Z,7.60
2023-04-09T02:07:21.073Z,6.55
2023-04-09T02:09:49.843Z,6.78
2023-04-09T02:12:19.539Z,9.00
2023-04-09T02:14:48.737Z,9.75
2023-04-09T02:17:17.011Z,8.18
2023-04-09T02:19:47.538Z,9.20
2023-04-09T02:22:16.681Z,8.20
2023-04-09T02:24:46.268Z,9.55
2023-04-09T02:27:14.235Z,4.75
2023-04-09T02:29:42.612Z,7.72
2023-04-09T02:32:10.489Z,7.50
2023-04-09T02:34:38.237Z,10.00
2023-04-09T02:37:06.070Z,8.65
2023-04-09T02:39:33.811Z,8.95
2023-04-09T02:42:01.668Z,7.43
2023-04-09T02:44:29.454Z,9.35
2023-04-09T02:46:58.019Z,7.72
2023-04-09T02:49:25.897Z,5.38
2023-04-09T02:51:53.654Z,4.32
2023-04-09T02:54:21.460Z,5.45
2023-04-09T02:56:54.435Z,5.68
2023-04-09T02:59:22.251Z,6.20
2023-04-09T03:01:50.359Z,5.28
2023-04-09T03:04:18.368Z,4.50
2023-04-09T03:06:46.209Z,5.70
2023-04-09T03:09:14.313Z,5.18
2023-04-09T03:11:42.102Z,6.00
2023-04-09T03:14:10.050Z,5.72
2023-04-09T03:16:38.023Z,6.57
2023-04-09T03:19:05.815Z,6.18
2023-04-09T03:21:33.842Z,6.55
2023-04-09T03:24:02.469Z,6.53
2023-04-09T03:26:36.335Z,6.20
2023-04-09T03:29:06.715Z,5.43
2023-04-09T03:31:34.584Z,5.85
2023-04-09T03:34:02.354Z,5.53
2023-04-09T03:36:33.042Z,5.75
2023-04-09T03:39:05.121Z,6.53
2023-04-09T03:41:38.916Z,6.07
2023-04-09T03:44:11.405Z,6.30
2023-04-09T03:46:58.269Z,6.97
2023-04-09T03:49:27.105Z,6.20
2023-04-09T03:51:58.485Z,6.35
2023-04-09T03:54:34.136Z,5.55
2023-04-09T03:57:07.923Z,6.57
2023-04-09T03:59:39.071Z,6.13
2023-04-09T04:02:07.427Z,6.07
2023-04-09T04:04:39.101Z,6.57
2023-04-09T04:07:10.611Z,6.03
2023-04-09T04:09:45.732Z,6.32
2023-04-09T04:12:17.367Z,7.20
2023-04-09T04:15:03.927Z,6.15
2023-04-09T04:17:54.517Z,5.13
2023-04-09T04:20:42.667Z,6.03
2023-04-09T04:23:14.035Z,5.70
2023-04-09T04:25:50.661Z,6.15
2023-04-09T04:28:25.060Z,5.80
2023-04-09T04:30:53.147Z,5.57
2023-04-09T04:33:20.960Z,6.03
2023-04-09T04:35:53.063Z,6.15
2023-04-09T04:38:37.571Z,5.60
2023-04-09T04:41:11.975Z,7.00
2023-04-09T04:43:43.997Z,5.30
2023-04-09T04:46:20.971Z,4.00
2023-04-09T04:48:49.251Z,5.82
2023-04-09T04:51:17.246Z,5.68
2023-04-09T04:53:57.682Z,5.85
2023-04-09T04:56:31.296Z,4.05
2023-04-09T04:59:07.701Z,5.50
2023-04-09T05:01:48.985Z,3.55
2023-04-09T05:04:16.949Z,5.22
2023-04-09T05:06:44.703Z,4.47
2023-04-09T05:09:19.507Z,5.63
2023-04-09T05:12:09.189Z,6.15
2023-04-09T05:14:36.949Z,6.13
2023-04-09T05:17:05.123Z,5.95
2023-04-09T05:19:41.972Z,4.90
2023-04-09T05:22:10.885Z,5.68
2023-04-09T05:24:38.594Z,5.55
2023-04-09T05:27:06.833Z,5.35
2023-04-09T05:29:35.012Z,6.32
2023-04-09T05:32:04.221Z,5.82
2023-04-09T05:34:36.552Z,5.93
2023-04-09T05:37:05.669Z,3.75
2023-04-09T05:39:34.503Z,5.63
2023-04-09T05:42:02.816Z,5.72
2023-04-09T05:44:53.519Z,6.07
2023-04-09T05:47:22.390Z,5.82
2023-04-09T05:50:02.128Z,5.28
2023-04-09T05:52:30.695Z,5.50
2023-04-09T05:54:59.079Z,4.30
2023-04-09T05:57:45.785Z,4.93
2023-04-09T06:00:14.339Z,4.97
2023-04-09T06:02:45.726Z,5.22
2023-04-09T06:05:13.763Z,4.55
2023-04-09T06:07:41.599Z,3.45
2023-04-09T06:10:09.533Z,5.63
2023-04-09T06:12:37.660Z,6.45
2023-04-09T06:15:06.643Z,4.95
2023-04-09T06:17:34.432Z,4.38
2023-04-09T06:20:02.273Z,4.97
2023-04-09T06:22:30.847Z,6.03
2023-04-09T06:24:58.582Z,4.82
2023-04-09T06:27:30.277Z,5.35
2023-04-09T06:29:57.985Z,5.75
2023-04-09T06:32:25.896Z,5.90
2023-04-09T06:34:53.618Z,6.35
2023-04-09T06:37:21.421Z,5.95
2023-04-09T06:40:00.282Z,6.50
2023-04-09T06:42:28.655Z,5.85
2023-04-09T06:45:10.472Z,5.57
2023-04-09T06:47:38.203Z,5.40
2023-04-09T06:50:06.457Z,4.28
2023-04-09T06:52:34.150Z,4.00
2023-04-09T06:55:02.151Z,4.90
2023-04-09T06:57:36.643Z,5.40
2023-04-09T07:00:04.693Z,5.75
2023-04-09T07:02:32.674Z,3.25
2023-04-09T07:05:01.175Z,5.45
2023-04-09T07:07:29.010Z,5.00
2023-04-09T07:09:56.867Z,5.00
2023-04-09T07:12:42.777Z,5.30
2023-04-09T07:15:10.744Z,4.93
2023-04-09T07:17:38.637Z,4.60
2023-04-09T07:20:06.836Z,4.13
2023-04-09T07:22:34.653Z,4.80
2023-04-09T07:25:02.534Z,5.05
2023-04-09T07:27:31.170Z,4.88
2023-04-09T07:30:00.613Z,5.32
2023-04-09T07:32:28.914Z,5.05
2023-04-09T07:34:57.716Z,5.65
2023-04-09T07:37:25.608Z,5.35
2023-04-09T07:39:53.698Z,4.03
2023-04-09T07:42:22.262Z,5.15
2023-04-09T07:44:50.290Z,5.43
2023-04-09T07:47:18.164Z,3.80
2023-04-09T07:49:46.354Z,5.10
2023-04-09T07:52:14.242Z,4.28
2023-04-09T07:54:42.015Z,5.40
2023-04-09T07:57:15.095Z,4.07
2023-04-09T07:59:43.134Z,4.40
2023-04-09T08:02:13.397Z,4.60
2023-04-09T08:04:43.291Z,4.88
2023-04-09T08:07:12.068Z,4.60
2023-04-09T08:09:40.013Z,4.40
2023-04-09T08:12:08.126Z,4.32
2023-04-09T08:14:36.498Z,4.65
2023-04-09T08:17:05.016Z,4.85
2023-04-09T08:19:33.264Z,4.90
2023-04-09T08:22:02.257Z,5.28
2023-04-09T08:24:30.402Z,4.95
2023-04-09T08:26:58.912Z,5.10
2023-04-09T08:29:27.792Z,5.10
2023-04-09T08:31:56.038Z,6.75
2023-04-09T08:34:24.244Z,2.58
2023-04-09T08:36:52.373Z,2.70
2023-04-09T08:39:21.141Z,5.25
2023-04-09T08:41:49.767Z,6.18
2023-04-09T08:44:18.045Z,4.72
2023-04-09T08:46:46.150Z,6.32
2023-04-09T08:49:14.630Z,4.35
2023-04-09T08:51:46.690Z,5.70
2023-04-09T08:54:20.524Z,4.65
2023-04-09T08:56:54.273Z,7.10
2023-04-09T08:59:22.599Z,4.30
2023-04-09T09:01:54.769Z,3.88
2023-04-09T09:04:23.278Z,4.82
2023-04-09T09:06:52.432Z,4.90
2023-04-09T09:09:21.272Z,4.47
2023-04-09T09:11:52.838Z,4.93
2023-04-09T09:14:21.294Z,5.10
2023-04-09T09:16:58.906Z,5.07
2023-04-09T09:19:27.042Z,5.35
2023-04-09T09:21:59.620Z,6.05
2023-04-09T09:24:28.110Z,4.78
2023-04-09T09:26:57.675Z,5.70
2023-04-09T09:29:26.387Z,6.15
2023-04-09T09:31:56.738Z,5.65
2023-04-09T09:34:26.307Z,5.38
2023-04-09T09:36:54.395Z,5.47
2023-04-09T09:39:22.721Z,6.00
2023-04-09T09:42:08.278Z,5.95
2023-04-09T09:44:36.602Z,5.90
2023-04-09T09:47:05.096Z,5.53
2023-04-09T09:49:33.202Z,5.72
2023-04-09T09:52:03.410Z,4.75
2023-04-09T09:54:39.133Z,5.75
2023-04-09T09:57:14.025Z,6.00
2023-04-09T09:59:48.199Z,5.60
2023-04-09T10:02:21.264Z,5.50
2023-04-09T10:04:53.122Z,5.30
2023-04-09T10:07:22.853Z,5.60
2023-04-09T10:09:55.384Z,5.85
2023-04-09T10:12:26.827Z,6.20
2023-04-09T10:15:04.709Z,5.65
2023-04-09T10:17:33.053Z,6.20
2023-04-09T10:20:20.160Z,5.45
2023-04-09T10:22:50.605Z,6.13
2023-04-09T10:25:18.959Z,5.38
2023-04-09T10:27:49.510Z,5.72
2023-04-09T10:30:36.432Z,5.25
2023-04-09T10:33:19.626Z,5.30
2023-04-09T10:35:48.958Z,5.22
2023-04-09T10:38:17.022Z,4.70
2023-04-09T10:40:52.451Z,5.53
2023-04-09T10:43:21.481Z,5.18
2023-04-09T10:45:53.867Z,5.78
2023-04-09T10:48:26.315Z,5.25
2023-04-09T10:50:54.376Z,5.40
2023-04-09T10:53:24.317Z,6.15
2023-04-09T10:55:56.646Z,5.95
2023-04-09T10:58:30.308Z,6.10
2023-04-09T11:01:02.828Z,6.28
2023-04-09T11:03:36.758Z,6.10
2023-04-09T11:06:09.573Z,5.72
2023-04-09T11:08:39.213Z,5.85
2023-04-09T11:11:07.447Z,5.90
2023-04-09T11:13:35.644Z,5.78
2023-04-09T11:16:07.406Z,6.90
2023-04-09T11:18:37.518Z,5.53
2023-04-09T11:21:06.242Z,6.45
2023-04-09T11:23:34.680Z,5.97
2023-04-09T11:26:03.095Z,5.88
2023-04-09T11:28:31.428Z,6.38
2023-04-09T11:30:59.842Z,6.10
2023-04-09T11:33:37.245Z,6.25
2023-04-09T11:36:07.327Z,6.68
2023-04-09T11:38:39.491Z,7.10
2023-04-09T11:41:07.590Z,6.13
2023-04-09T11:43:37.283Z,8.50
2023-04-09T11:46:08.530Z,7.93
2023-04-09T11:48:37.257Z,6.70
2023-04-09T11:51:05.446Z,13.30
2023-04-09T11:53:33.557Z,6.30
2023-04-09T11:56:01.952Z,5.95
2023-04-09T11:58:36.538Z,5.72
2023-04-09T12:01:04.868Z,6.50
2023-04-09T12:03:33.729Z,5.85
2023-04-09T12:06:03.500Z,5.57
2023-04-09T12:08:32.234Z,6.15
2023-04-09T12:11:12.782Z,6.20
2023-04-09T12:13:45.074Z,6.72
2023-04-09T12:16:15.200Z,9.48
2023-04-09T12:18:43.581Z,6.80
2023-04-09T12:21:12.216Z,6.80
2023-04-09T12:23:40.531Z,6.43
2023-04-09T12:26:08.762Z,7.70
2023-04-09T12:28:37.289Z,7.05
2023-04-09T12:31:05.537Z,6.20
2023-04-09T12:33:35.105Z,5.70
2023-04-09T12:36:03.217Z,6.18
2023-04-09T12:38:31.482Z,5.82
2023-04-09T12:40:59.886Z,6.90
2023-04-09T12:43:28.142Z,6.47
2023-04-09T12:45:57.492Z,6.90
2023-04-09T12:48:25.967Z,6.20
2023-04-09T12:50:54.380Z,6.40
2023-04-09T12:53:23.417Z,7.25
2023-04-09T12:55:52.623Z,6.47
2023-04-09T12:58:26.968Z,6.32
2023-04-09T13:00:57.209Z,6.28
2023-04-09T13:03:27.929Z,6.00
2023-04-09T13:05:57.081Z,5.72
2023-04-09T13:08:27.101Z,6.72
2023-04-09T13:10:56.296Z,7.03
2023-04-09T13:13:25.690Z,6.32
2023-04-09T13:15:55.796Z,9.82
2023-04-09T13:18:24.014Z,8.25
2023-04-09T13:20:52.888Z,7.30
2023-04-09T13:23:22.368Z,7.13
2023-04-09T13:25:51.198Z,5.85
2023-04-09T13:28:19.468Z,6.20
2023-04-09T13:30:48.751Z,8.88
2023-04-09T13:33:17.472Z,6.80
2023-04-09T13:35:46.377Z,7.97
2023-04-09T13:38:14.428Z,6.43
2023-04-09T13:40:45.154Z,7.00
2023-04-09T13:43:16.838Z,6.47
2023-04-09T13:45:45.545Z,6.55
2023-04-09T13:48:15.523Z,6.25
2023-04-09T13:50:44.051Z,7.68
2023-04-09T13:53:13.693Z,8.68
2023-04-09T13:55:41.924Z,8.07
2023-04-09T13:58:15.287Z,7.88
2023-04-09T14:00:43.767Z,7.15
2023-04-09T14:03:13.997Z,7.88
2023-04-09T14:05:42.406Z,11.95
2023-04-09T14:08:10.673Z,7.22
2023-04-09T14:10:38.954Z,7.47
2023-04-09T14:13:07.968Z,7.35
2023-04-09T14:15:36.069Z,8.10
2023-04-09T14:18:04.386Z,8.45
2023-04-09T14:20:33.790Z,14.98
2023-04-09T14:23:01.926Z,10.13
2023-04-09T14:25:30.652Z,9.40
2023-04-09T14:27:59.501Z,9.02
2023-04-09T14:30:28.697Z,8.55
2023-04-09T14:32:57.265Z,7.47
2023-04-09T14:35:25.920Z,11.55
2023-04-09T14:37:53.998Z,8.07
2023-04-09T14:40:22.565Z,9.20
2023-04-09T14:42:54.453Z,7.95
2023-04-09T14:45:22.614Z,9.98
2023-04-09T14:47:51.302Z,70.20
2023-04-09T14:50:20.130Z,54.30
2023-04-09T14:52:48.698Z,15.07
2023-04-09T14:55:17.061Z,10.23
2023-04-09T14:57:50.496Z,9.95
2023-04-09T15:00:18.558Z,11.88
2023-04-09T15:02:48.109Z,8.15
2023-04-09T15:05:16.409Z,9.82
2023-04-09T15:07:44.500Z,7.25
2023-04-09T15:10:12.828Z,6.45
2023-04-09T15:12:41.097Z,7.90
2023-04-09T15:15:10.321Z,6.40
2023-04-09T15:17:38.332Z,7.13
2023-04-09T15:20:07.132Z,7.10
2023-04-09T15:22:35.208Z,7.20
2023-04-09T15:25:03.287Z,8.00
2023-04-09T15:27:31.417Z,7.78
2023-04-09T15:29:59.548Z,8.18
2023-04-09T15:32:29.964Z,9.38
2023-04-09T15:34:58.153Z,9.55
2023-04-09T15:37:26.305Z,9.52
2023-04-09T15:39:54.384Z,7.72
2023-04-09T15:42:23.157Z,7.78
2023-04-09T15:44:51.940Z,6.10
2023-04-09T15:47:20.005Z,6.95
2023-04-09T15:49:48.198Z,7.47
2023-04-09T15:52:16.380Z,7.30
2023-04-09T15:54:44.422Z,7.15
2023-04-09T15:57:19.016Z,7.43
2023-04-09T15:59:48.757Z,7.38
2023-04-09T16:02:17.107Z,6.50
2023-04-09T16:04:45.331Z,6.88
2023-04-09T16:07:16.842Z,6.97
2023-04-09T16:09:46.498Z,7.13
2023-04-09T16:12:14.531Z,12.25
2023-04-09T16:14:42.657Z,16.65
2023-04-09T16:17:11.261Z,16.52
2023-04-09T16:19:39.614Z,9.77
2023-04-09T16:22:07.829Z,6.90
2023-04-09T16:24:36.340Z,6.90
2023-04-09T16:27:04.694Z,6.55
2023-04-09T16:29:32.763Z,8.65
2023-04-09T16:32:00.974Z,8.70
2023-04-09T16:34:29.171Z,12.48
2023-04-09T16:36:57.466Z,10.23
2023-04-09T16:39:25.634Z,6.93
2023-04-09T16:41:53.815Z,7.82
2023-04-09T16:44:22.045Z,6.90
2023-04-09T16:46:50.146Z,6.95
2023-04-09T16:49:18.193Z,7.15
2023-04-09T16:51:46.561Z,9.00
2023-04-09T16:54:14.734Z,8.35
2023-04-09T16:56:51.440Z,7.53
2023-04-09T16:59:21.424Z,6.90
2023-04-09T17:01:49.608Z,8.98
2023-04-09T17:04:18.135Z,6.75
2023-04-09T17:06:46.631Z,8.52
2023-04-09T17:09:14.857Z,9.48
2023-04-09T17:11:43.333Z,9.90
2023-04-09T17:14:12.909Z,11.48
2023-04-09T17:16:41.470Z,8.30
2023-04-09T17:19:12.277Z,10.40
2023-04-09T17:21:41.211Z,10.88
2023-04-09T17:24:16.196Z,7.63
2023-04-09T17:26:44.463Z,8.07
2023-04-09T17:29:12.717Z,7.60
2023-04-09T17:31:40.949Z,7.88
2023-04-09T17:34:09.242Z,8.75
2023-04-09T17:36:37.827Z,8.00
2023-04-09T17:39:06.833Z,9.25
2023-04-09T17:41:35.116Z,9.68
2023-04-09T17:44:03.509Z,7.90
2023-04-09T17:46:31.623Z,8.00
2023-04-09T17:48:59.897Z,8.70
2023-04-09T17:51:28.187Z,8.23
2023-04-09T17:53:56.708Z,8.90
2023-04-09T17:56:27.660Z,9.73
2023-04-09T17:59:04.127Z,9.30
2023-04-09T18:01:32.541Z,10.02
2023-04-09T18:04:01.923Z,10.63
2023-04-09T18:06:30.372Z,8.80
2023-04-09T18:08:58.572Z,9.80
2023-04-09T18:11:27.506Z,9.60
2023-04-09T18:13:55.841Z,9.73
2023-04-09T18:16:24.048Z,10.50
2023-04-09T18:18:52.464Z,8.43
2023-04-09T18:21:20.979Z,9.40
2023-04-09T18:23:49.060Z,9.30
2023-04-09T18:26:17.203Z,8.88
2023-04-09T18:28:45.473Z,9.25
2023-04-09T18:31:13.651Z,9.60
2023-04-09T18:33:41.826Z,10.32
2023-04-09T18:36:10.038Z,9.38
2023-04-09T18:38:39.618Z,9.38
2023-04-09T18:41:11.509Z,9.55
2023-04-09T18:43:40.271Z,9.35
2023-04-09T18:46:09.186Z,10.05
2023-04-09T18:48:37.320Z,9.52
2023-04-09T18:51:05.664Z,8.50
2023-04-09T18:53:33.690Z,9.32
2023-04-09T18:56:01.917Z,9.25
2023-04-09T18:58:36.573Z,8.63
2023-04-09T19:01:12.172Z,9.25
2023-04-09T19:03:41.095Z,9.52
2023-04-09T19:06:18.465Z,9.93
2023-04-09T19:08:47.663Z,9.55
2023-04-09T19:11:15.998Z,9.52
2023-04-09T19:13:47.273Z,10.80
2023-04-09T19:16:18.395Z,10.63
2023-04-09T19:18:46.683Z,11.10
2023-04-09T19:21:14.956Z,10.27
2023-04-09T19:23:42.997Z,11.32
2023-04-09T19:26:11.031Z,9.43
2023-04-09T19:28:39.166Z,9.63
2023-04-09T19:31:09.271Z,9.88
2023-04-09T19:33:37.441Z,11.23
2023-04-09T19:36:08.160Z,11.07
2023-04-09T19:38:36.557Z,10.52
2023-04-09T19:41:05.177Z,11.23
2023-04-09T19:43:33.282Z,10.32
2023-04-09T19:46:07.518Z,9.95
2023-04-09T19:48:36.587Z,10.65
2023-04-09T19:51:08.362Z,8.82
2023-04-09T19:53:38.064Z,10.18
2023-04-09T19:56:06.623Z,11.13
2023-04-09T19:58:41.709Z,10.95
2023-04-09T20:01:10.163Z,11.20
2023-04-09T20:03:38.709Z,9.95
2023-04-09T20:06:09.641Z,11.05
2023-04-09T20:08:41.196Z,10.32
2023-04-09T20:11:24.501Z,10.68
2023-04-09T20:13:57.755Z,11.00
2023-04-09T20:16:27.855Z,9.98
2023-04-09T20:18:57.973Z,11.02
2023-04-09T20:21:27.171Z,11.25
2023-04-09T20:24:15.397Z,10.75
2023-04-09T20:26:49.947Z,10.20
2023-04-09T20:29:24.784Z,11.45
2023-04-09T20:31:54.384Z,10.88
2023-04-09T20:34:27.672Z,10.85
2023-04-09T20:37:19.144Z,11.02
2023-04-09T20:39:53.027Z,10.73
2023-04-09T20:42:22.189Z,10.20
2023-04-09T20:45:01.547Z,10.98
2023-04-09T20:47:36.106Z,12.00
2023-04-09T20:50:24.896Z,10.30
2023-04-09T20:52:54.924Z,10.32
2023-04-09T20:55:26.500Z,10.52
2023-04-09T20:58:05.406Z,10.63
2023-04-09T21:00:34.413Z,11.23
2023-04-09T21:03:03.667Z,10.60
2023-04-09T21:05:34.753Z,11.32
2023-04-09T21:08:25.749Z,11.68
2023-04-09T21:10:54.924Z,11.25
2023-04-09T21:13:40.498Z,11.60
2023-04-09T21:16:21.697Z,11.45
2023-04-09T21:18:58.755Z,7.93
2023-04-09T21:21:49.011Z,11.98
2023-04-09T21:24:18.646Z,12.13
2023-04-09T21:26:51.524Z,11.55
2023-04-09T21:29:24.164Z,11.20
2023-04-09T21:31:52.267Z,13.15
2023-04-09T21:34:20.437Z,12.25
2023-04-09T21:36:48.937Z,9.98
2023-04-09T21:39:17.061Z,12.82
2023-04-09T21:41:45.121Z,12.23
2023-04-09T21:44:13.805Z,11.68
2023-04-09T21:46:42.144Z,11.15
2023-04-09T21:49:10.364Z,11.45
2023-04-09T21:51:39.399Z,12.20
2023-04-09T21:54:11.445Z,12.77
2023-04-09T21:56:47.365Z,12.98
2023-04-09T21:59:15.909Z,12.70
2023-04-09T22:01:44.119Z,12.75
2023-04-09T22:04:12.552Z,13.07
2023-04-09T22:06:40.798Z,13.32
2023-04-09T22:09:08.828Z,13.68
2023-04-09T22:11:41.794Z,14.52
2023-04-09T22:14:12.913Z,5.60
2023-04-09T22:16:41.186Z,13.10
2023-04-09T22:19:09.565Z,12.25
2023-04-09T22:21:37.818Z,12.77
2023-04-09T22:24:05.992Z,14.00
2023-04-09T22:26:34.761Z,13.90
2023-04-09T22:29:04.448Z,13.38
2023-04-09T22:31:34.520Z,13.30
2023-04-09T22:34:17.260Z,12.82
2023-04-09T22:36:48.843Z,13.32
2023-04-09T22:39:17.473Z,13.82
2023-04-09T22:41:48.562Z,13.18
2023-04-09T22:44:16.852Z,12.85
2023-04-09T22:46:44.933Z,13.68
2023-04-09T22:49:13.075Z,14.00
2023-04-09T22:51:41.833Z,13.48
2023-04-09T22:54:10.789Z,12.88
2023-04-09T22:56:38.693Z,12.20
2023-04-09T22:59:12.130Z,13.25
2023-04-09T23:01:40.416Z,13.32
2023-04-09T23:04:08.631Z,13.25
2023-04-09T23:06:36.672Z,13.73
2023-04-09T23:09:10.447Z,13.48
2023-04-09T23:11:38.462Z,13.32
2023-04-09T23:14:06.494Z,13.20
2023-04-09T23:16:37.031Z,12.82
2023-04-09T23:19:05.276Z,13.88
2023-04-09T23:21:33.619Z,11.95
2023-04-09T23:24:04.900Z,12.35
2023-04-09T23:26:33.185Z,12.63
2023-04-09T23:29:01.380Z,13.60
2023-04-09T23:31:29.320Z,9.95
2023-04-09T23:33:57.322Z,13.38
2023-04-09T23:36:26.467Z,11.35
2023-04-09T23:38:54.382Z,13.38
2023-04-09T23:41:22.419Z,14.10
2023-04-09T23:43:51.736Z,13.85
2023-04-09T23:46:19.832Z,14.30
2023-04-09T23:48:47.959Z,14.80
2023-04-09T23:51:19.988Z,14.43
2023-04-09T23:53:47.882Z,14.65
2023-04-09T23:56:16.441Z,15.07
2023-04-09T23:58:49.730Z,14.18
